createdAt,value
2018-12-01T00:00:06.428Z,6.87
2018-12-01T00:02:35.655Z,7.60
2018-12-01T00:05:03.040Z,7.17
2018-12-01T00:07:31.674Z,6.67
2018-12-01T00:09:59.220Z,7.43
2018-12-01T00:12:27.030Z,7.60
2018-12-01T00:14:54.601Z,6.93
2018-12-01T00:17:23.194Z,7.87
2018-12-01T00:19:50.745Z,7.33
2018-12-01T00:22:18.251Z,7.27
2018-12-01T00:24:45.859Z,7.30
2018-12-01T00:27:13.401Z,6.63
2018-12-01T00:29:41.038Z,7.03
2018-12-01T00:32:08.634Z,7.20
2018-12-01T00:34:36.647Z,7.63
2018-12-01T00:37:06.599Z,8.10
2018-12-01T00:39:34.256Z,7.73
2018-12-01T00:42:01.950Z,7.87
2018-12-01T00:44:29.611Z,8.57
2018-12-01T00:46:57.172Z,7.93
2018-12-01T00:49:24.797Z,7.50
2018-12-01T00:51:52.312Z,7.70
2018-12-01T00:54:19.837Z,7.27
2018-12-01T00:56:47.397Z,7.30
2018-12-01T00:59:15.739Z,7.13
2018-12-01T01:01:43.355Z,7.13
2018-12-01T01:04:10.945Z,7.33
2018-12-01T01:06:38.402Z,6.50
2018-12-01T01:09:06.680Z,7.00
2018-12-01T01:11:34.336Z,6.63
2018-12-01T01:14:02.027Z,7.43
2018-12-01T01:16:29.602Z,7.07
2018-12-01T01:18:57.226Z,7.10
2018-12-01T01:21:24.812Z,6.90
2018-12-01T01:23:52.324Z,6.40
2018-12-01T01:26:19.898Z,6.70
2018-12-01T01:28:47.413Z,7.10
2018-12-01T01:31:14.885Z,6.37
2018-12-01T01:33:42.493Z,6.07
2018-12-01T01:36:11.041Z,6.30
2018-12-01T01:38:38.625Z,7.00
2018-12-01T01:41:07.230Z,6.67
2018-12-01T01:43:35.328Z,8.30
2018-12-01T01:46:03.830Z,7.10
2018-12-01T01:48:32.165Z,7.73
2018-12-01T01:50:59.759Z,6.53
2018-12-01T01:53:28.002Z,7.10
2018-12-01T01:55:55.845Z,6.53
2018-12-01T01:58:23.438Z,6.23
2018-12-01T02:00:51.093Z,6.63
2018-12-01T02:03:19.380Z,6.97
2018-12-01T02:05:46.991Z,6.77
2018-12-01T02:08:15.270Z,7.77
2018-12-01T02:10:42.894Z,7.90
2018-12-01T02:13:10.458Z,6.77
2018-12-01T02:15:38.084Z,6.53
2018-12-01T02:18:05.994Z,5.90
2018-12-01T02:20:33.652Z,6.27
2018-12-01T02:23:01.257Z,6.30
2018-12-01T02:25:29.550Z,6.13
2018-12-01T02:27:57.040Z,6.27
2018-12-01T02:30:24.586Z,6.80
2018-12-01T02:32:58.723Z,6.23
2018-12-01T02:35:26.974Z,6.17
2018-12-01T02:37:55.087Z,6.37
2018-12-01T02:40:22.069Z,6.13
2018-12-01T02:42:49.649Z,5.80
2018-12-01T02:45:22.706Z,6.17
2018-12-01T02:47:50.190Z,5.20
2018-12-01T02:50:23.354Z,5.17
2018-12-01T02:52:50.848Z,5.87
2018-12-01T02:55:18.407Z,5.57
2018-12-01T02:57:46.030Z,6.07
2018-12-01T03:00:13.606Z,7.13
2018-12-01T03:02:41.080Z,8.90
2018-12-01T03:05:10.665Z,11.83
2018-12-01T03:07:38.240Z,11.03
2018-12-01T03:10:09.365Z,11.73
2018-12-01T03:12:37.121Z,11.53
2018-12-01T03:15:06.524Z,11.53
2018-12-01T03:17:35.945Z,11.20
2018-12-01T03:20:08.441Z,9.63
2018-12-01T03:22:35.983Z,10.20
2018-12-01T03:25:08.365Z,8.57
2018-12-01T03:27:36.650Z,8.20
2018-12-01T03:30:10.562Z,7.70
2018-12-01T03:32:39.292Z,7.60
2018-12-01T03:35:12.155Z,7.63
2018-12-01T03:37:40.889Z,7.97
2018-12-01T03:40:08.495Z,7.87
2018-12-01T03:42:35.947Z,7.33
2018-12-01T03:45:03.729Z,7.30
2018-12-01T03:47:31.290Z,7.43
2018-12-01T03:49:58.932Z,7.20
2018-12-01T03:52:26.865Z,7.23
2018-12-01T03:54:54.445Z,6.57
2018-12-01T03:57:22.087Z,7.60
2018-12-01T03:59:49.571Z,5.67
2018-12-01T04:02:17.278Z,6.00
2018-12-01T04:04:44.866Z,6.37
2018-12-01T04:07:12.639Z,5.57
2018-12-01T04:09:46.861Z,6.13
2018-12-01T04:12:14.478Z,5.37
2018-12-01T04:14:42.257Z,5.40
2018-12-01T04:17:10.129Z,5.10
2018-12-01T04:19:38.378Z,4.60
2018-12-01T04:22:06.165Z,5.07
2018-12-01T04:24:33.839Z,4.43
2018-12-01T04:27:02.107Z,5.90
2018-12-01T04:29:29.672Z,4.70
2018-12-01T04:31:57.236Z,5.87
2018-12-01T04:34:25.234Z,4.83
2018-12-01T04:36:54.345Z,4.67
2018-12-01T04:39:22.473Z,4.90
2018-12-01T04:41:54.334Z,4.70
2018-12-01T04:44:21.901Z,5.03
2018-12-01T04:46:49.502Z,4.60
2018-12-01T04:49:17.109Z,5.70
2018-12-01T04:51:46.250Z,4.80
2018-12-01T04:54:13.739Z,5.13
2018-12-01T04:56:41.432Z,5.53
2018-12-01T04:59:09.364Z,4.67
2018-12-01T05:01:36.828Z,4.47
2018-12-01T05:04:04.625Z,4.97
2018-12-01T05:06:32.227Z,5.00
2018-12-01T05:09:02.362Z,4.80
2018-12-01T05:11:34.106Z,4.80
2018-12-01T05:14:01.711Z,5.67
2018-12-01T05:16:30.256Z,6.13
2018-12-01T05:18:57.722Z,7.17
2018-12-01T05:21:25.436Z,6.40
2018-12-01T05:23:53.036Z,5.23
2018-12-01T05:26:21.181Z,5.70
2018-12-01T05:28:48.785Z,4.93
2018-12-01T05:31:16.825Z,5.67
2018-12-01T05:33:44.427Z,5.37
2018-12-01T05:36:12.550Z,4.93
2018-12-01T05:38:40.151Z,5.37
2018-12-01T05:41:07.741Z,6.03
2018-12-01T05:43:35.269Z,5.30
2018-12-01T05:46:02.807Z,5.50
2018-12-01T05:48:30.346Z,6.60
2018-12-01T05:50:57.958Z,7.30
2018-12-01T05:53:25.488Z,9.50
2018-12-01T05:55:53.179Z,9.13
2018-12-01T05:58:20.871Z,8.60
2018-12-01T06:00:48.326Z,8.37
2018-12-01T06:03:15.924Z,6.30
2018-12-01T06:05:48.132Z,5.90
2018-12-01T06:08:16.154Z,5.43
2018-12-01T06:10:47.930Z,5.40
2018-12-01T06:13:15.522Z,5.30
2018-12-01T06:15:43.150Z,4.70
2018-12-01T06:18:10.868Z,5.23
2018-12-01T06:20:38.385Z,5.80
2018-12-01T06:23:06.903Z,5.30
2018-12-01T06:25:35.385Z,5.63
2018-12-01T06:28:02.885Z,5.50
2018-12-01T06:30:30.399Z,6.57
2018-12-01T06:32:57.825Z,6.33
2018-12-01T06:35:26.408Z,6.37
2018-12-01T06:37:53.871Z,6.23
2018-12-01T06:40:21.503Z,6.57
2018-12-01T06:42:49.028Z,6.97
2018-12-01T06:45:16.635Z,5.80
2018-12-01T06:47:44.214Z,6.93
2018-12-01T06:50:12.317Z,7.03
2018-12-01T06:52:39.871Z,6.63
2018-12-01T06:55:08.197Z,8.20
2018-12-01T06:57:35.743Z,7.97
2018-12-01T07:00:03.306Z,8.60
2018-12-01T07:02:30.781Z,9.50
2018-12-01T07:04:58.297Z,9.47
2018-12-01T07:07:28.757Z,10.67
2018-12-01T07:10:01.735Z,10.23
2018-12-01T07:12:29.223Z,9.50
2018-12-01T07:14:56.758Z,10.07
2018-12-01T07:17:24.389Z,10.43
2018-12-01T07:19:51.999Z,9.33
2018-12-01T07:22:19.468Z,9.53
2018-12-01T07:24:47.588Z,9.70
2018-12-01T07:27:15.086Z,9.17
2018-12-01T07:29:42.545Z,10.33
2018-12-01T07:32:10.051Z,9.13
2018-12-01T07:34:38.116Z,8.37
2018-12-01T07:37:06.355Z,9.97
2018-12-01T07:39:33.879Z,8.50
2018-12-01T07:42:01.527Z,8.30
2018-12-01T07:44:29.483Z,8.43
2018-12-01T07:46:57.075Z,7.33
2018-12-01T07:49:25.523Z,8.00
2018-12-01T07:51:52.950Z,7.10
2018-12-01T07:54:20.374Z,7.17
2018-12-01T07:56:47.879Z,6.90
2018-12-01T07:59:15.391Z,7.60
2018-12-01T08:01:42.863Z,6.20
2018-12-01T08:04:10.483Z,7.63
2018-12-01T08:06:37.921Z,7.57
2018-12-01T08:09:06.842Z,7.67
2018-12-01T08:11:34.343Z,6.90
2018-12-01T08:14:01.915Z,6.90
2018-12-01T08:16:30.299Z,7.23
2018-12-01T08:18:57.715Z,6.93
2018-12-01T08:21:25.312Z,6.33
2018-12-01T08:23:52.718Z,6.70
2018-12-01T08:26:20.221Z,6.70
2018-12-01T08:28:48.248Z,6.63
2018-12-01T08:31:15.704Z,5.97
2018-12-01T08:33:43.463Z,5.80
2018-12-01T08:36:10.933Z,6.13
2018-12-01T08:38:38.382Z,5.40
2018-12-01T08:41:05.946Z,5.37
2018-12-01T08:43:33.430Z,5.63
2018-12-01T08:46:01.012Z,5.83
2018-12-01T08:48:28.486Z,5.40
2018-12-01T08:50:58.213Z,5.50
2018-12-01T08:53:25.778Z,6.27
2018-12-01T08:55:53.205Z,6.10
2018-12-01T08:58:20.655Z,6.57
2018-12-01T09:00:48.880Z,5.80
2018-12-01T09:03:17.217Z,6.17
2018-12-01T09:05:44.771Z,6.87
2018-12-01T09:08:12.213Z,6.33
2018-12-01T09:10:39.640Z,6.10
2018-12-01T09:13:07.068Z,5.70
2018-12-01T09:15:36.847Z,5.60
2018-12-01T09:18:01.980Z,5.30
2018-12-01T09:20:29.437Z,6.47
2018-12-01T09:22:56.938Z,6.00
2018-12-01T09:25:25.075Z,5.90
2018-12-01T09:27:52.510Z,5.50
2018-12-01T09:30:21.110Z,6.67
2018-12-01T09:32:48.702Z,5.50
2018-12-01T09:35:16.242Z,5.23
2018-12-01T09:37:43.798Z,5.43
2018-12-01T09:40:13.034Z,5.77
2018-12-01T09:42:40.604Z,6.00
2018-12-01T09:45:08.835Z,5.70
2018-12-01T09:47:36.332Z,6.17
2018-12-01T09:50:05.973Z,5.53
2018-12-01T09:52:33.414Z,5.77
2018-12-01T09:55:00.828Z,5.70
2018-12-01T09:57:28.327Z,5.23
2018-12-01T09:59:55.790Z,5.90
2018-12-01T10:02:23.484Z,6.27
2018-12-01T10:04:51.061Z,5.43
2018-12-01T10:07:25.592Z,5.30
2018-12-01T10:09:55.947Z,6.37
2018-12-01T10:12:23.985Z,5.70
2018-12-01T10:14:51.748Z,6.20
2018-12-01T10:17:19.294Z,5.97
2018-12-01T10:19:47.248Z,5.93
2018-12-01T10:22:15.040Z,5.93
2018-12-01T10:24:42.522Z,6.47
2018-12-01T10:27:10.016Z,5.50
2018-12-01T10:29:37.586Z,5.57
2018-12-01T10:32:05.089Z,6.20
2018-12-01T10:34:32.592Z,5.90
2018-12-01T10:37:00.046Z,5.90
2018-12-01T10:39:27.653Z,5.80
2018-12-01T10:41:56.289Z,5.93
2018-12-01T10:44:23.878Z,6.23
2018-12-01T10:46:51.329Z,6.07
2018-12-01T10:49:18.789Z,6.87
2018-12-01T10:51:46.208Z,6.37
2018-12-01T10:54:13.778Z,6.97
2018-12-01T10:56:41.267Z,6.30
2018-12-01T10:59:08.844Z,7.10
2018-12-01T11:01:40.681Z,7.23
2018-12-01T11:04:13.396Z,7.37
2018-12-01T11:06:40.941Z,7.80
2018-12-01T11:09:08.819Z,7.03
2018-12-01T11:11:36.370Z,6.60
2018-12-01T11:14:03.791Z,7.83
2018-12-01T11:16:31.333Z,7.27
2018-12-01T11:18:58.785Z,7.60
2018-12-01T11:21:26.221Z,7.97
2018-12-01T11:23:53.976Z,7.93
2018-12-01T11:26:21.750Z,7.93
2018-12-01T11:28:49.297Z,7.07
2018-12-01T11:31:17.225Z,7.53
2018-12-01T11:33:44.836Z,7.70
2018-12-01T11:36:12.389Z,7.63
2018-12-01T11:38:40.015Z,7.40
2018-12-01T11:41:08.043Z,7.83
2018-12-01T11:43:35.712Z,7.73
2018-12-01T11:46:03.436Z,7.20
2018-12-01T11:48:30.982Z,8.00
2018-12-01T11:50:58.602Z,7.87
2018-12-01T11:53:26.183Z,8.13
2018-12-01T11:55:54.443Z,7.83
2018-12-01T11:58:21.996Z,7.67
2018-12-01T12:00:49.584Z,7.63
2018-12-01T12:03:17.509Z,7.33
2018-12-01T12:05:46.050Z,8.03
2018-12-01T12:08:16.914Z,7.80
2018-12-01T12:10:44.469Z,7.83
2018-12-01T12:13:11.963Z,7.43
2018-12-01T12:15:40.337Z,7.27
2018-12-01T12:18:08.646Z,8.57
2018-12-01T12:20:36.283Z,8.10
2018-12-01T12:23:05.285Z,7.87
2018-12-01T12:25:32.967Z,7.90
2018-12-01T12:28:00.830Z,8.23
2018-12-01T12:30:28.659Z,7.70
2018-12-01T12:32:56.335Z,8.60
2018-12-01T12:35:24.170Z,7.93
2018-12-01T12:37:51.976Z,8.13
2018-12-01T12:40:21.471Z,10.80
2018-12-01T12:42:49.247Z,9.70
2018-12-01T12:45:16.855Z,10.33
2018-12-01T12:47:44.402Z,10.43
2018-12-01T12:50:13.604Z,11.60
2018-12-01T12:52:41.931Z,12.23
2018-12-01T12:55:10.493Z,11.40
2018-12-01T12:57:38.190Z,11.90
2018-12-01T13:00:08.038Z,12.37
2018-12-01T13:02:36.098Z,11.37
2018-12-01T13:05:03.869Z,11.43
2018-12-01T13:07:31.448Z,11.80
2018-12-01T13:09:59.022Z,10.90
2018-12-01T13:12:26.997Z,11.43
2018-12-01T13:14:54.852Z,11.77
2018-12-01T13:17:22.720Z,13.07
2018-12-01T13:19:50.641Z,12.17
2018-12-01T13:22:18.601Z,12.53
2018-12-01T13:24:46.382Z,12.87
2018-12-01T13:27:13.964Z,12.37
2018-12-01T13:29:41.897Z,12.67
2018-12-01T13:32:09.970Z,13.07
2018-12-01T13:34:37.916Z,11.43
2018-12-01T13:37:06.620Z,11.80
2018-12-01T13:39:34.119Z,11.73
2018-12-01T13:42:01.696Z,10.80
2018-12-01T13:44:29.398Z,10.60
2018-12-01T13:46:57.024Z,10.20
2018-12-01T13:49:24.519Z,9.83
2018-12-01T13:51:52.181Z,8.97
2018-12-01T13:54:20.560Z,9.17
2018-12-01T13:56:48.193Z,8.70
2018-12-01T13:59:15.757Z,8.47
2018-12-01T14:01:43.887Z,8.83
2018-12-01T14:04:11.996Z,9.73
2018-12-01T14:06:40.389Z,11.23
2018-12-01T14:09:09.741Z,11.00
2018-12-01T14:11:37.290Z,11.63
2018-12-01T14:14:04.806Z,9.83
2018-12-01T14:16:36.938Z,10.93
2018-12-01T14:19:05.037Z,9.33
2018-12-01T14:21:34.012Z,9.93
2018-12-01T14:24:01.608Z,10.17
2018-12-01T14:26:29.132Z,10.83
2018-12-01T14:28:59.103Z,9.67
2018-12-01T14:31:26.752Z,10.37
2018-12-01T14:33:55.526Z,9.90
2018-12-01T14:36:23.426Z,8.90
2018-12-01T14:38:51.128Z,9.97
2018-12-01T14:41:18.685Z,9.33
2018-12-01T14:43:46.311Z,9.03
2018-12-01T14:46:13.937Z,9.30
2018-12-01T14:48:41.562Z,10.40
2018-12-01T14:51:09.614Z,9.27
2018-12-01T14:53:41.779Z,9.83
2018-12-01T14:56:09.749Z,9.23
2018-12-01T14:58:42.281Z,8.97
2018-12-01T15:01:05.466Z,8.37
2018-12-01T15:03:33.286Z,8.93
2018-12-01T15:06:01.342Z,10.40
2018-12-01T15:08:28.985Z,9.97
2018-12-01T15:10:56.900Z,9.53
2018-12-01T15:13:25.739Z,9.70
2018-12-01T15:15:53.308Z,10.63
2018-12-01T15:18:21.141Z,10.60
2018-12-01T15:20:49.468Z,11.20
2018-12-01T15:23:17.227Z,11.20
2018-12-01T15:25:44.983Z,11.47
2018-12-01T15:28:13.191Z,10.97
2018-12-01T15:30:41.801Z,11.33
2018-12-01T15:33:13.367Z,11.33
2018-12-01T15:35:41.714Z,11.40
2018-12-01T15:38:10.652Z,11.00
2018-12-01T15:40:39.271Z,11.77
2018-12-01T15:43:07.170Z,11.77
2018-12-01T15:45:35.469Z,10.93
2018-12-01T15:48:03.325Z,12.20
2018-12-01T15:50:30.989Z,11.43
2018-12-01T15:52:59.067Z,10.90
2018-12-01T15:55:26.623Z,10.63
2018-12-01T15:57:54.402Z,10.60
2018-12-01T16:00:23.276Z,10.47
2018-12-01T16:02:51.627Z,10.20
2018-12-01T16:05:19.629Z,9.73
2018-12-01T16:07:47.548Z,10.50
2018-12-01T16:10:15.730Z,9.50
2018-12-01T16:12:43.663Z,8.93
2018-12-01T16:15:13.919Z,9.80
2018-12-01T16:17:41.733Z,8.90
2018-12-01T16:20:12.262Z,9.30
2018-12-01T16:22:39.739Z,9.23
2018-12-01T16:25:08.419Z,9.50
2018-12-01T16:27:35.964Z,8.60
2018-12-01T16:30:04.064Z,9.13
2018-12-01T16:32:32.426Z,8.80
2018-12-01T16:34:59.942Z,9.13
2018-12-01T16:37:27.459Z,9.43
2018-12-01T16:39:55.161Z,9.90
2018-12-01T16:42:22.686Z,10.17
2018-12-01T16:44:50.397Z,11.27
2018-12-01T16:47:17.891Z,10.30
2018-12-01T16:49:45.521Z,10.10
2018-12-01T16:52:13.061Z,10.07
2018-12-01T16:54:40.603Z,12.17
2018-12-01T16:57:08.047Z,11.00
2018-12-01T16:59:36.196Z,11.87
2018-12-01T17:02:03.648Z,10.77
2018-12-01T17:04:31.120Z,9.70
2018-12-01T17:06:58.546Z,10.90
2018-12-01T17:09:26.004Z,10.70
2018-12-01T17:11:54.200Z,10.83
2018-12-01T17:14:21.707Z,9.63
2018-12-01T17:16:49.344Z,11.33
2018-12-01T17:19:16.808Z,10.50
2018-12-01T17:21:44.252Z,9.90
2018-12-01T17:24:11.675Z,9.30
2018-12-01T17:26:39.151Z,10.17
2018-12-01T17:29:06.834Z,9.13
2018-12-01T17:31:34.292Z,8.83
2018-12-01T17:34:01.832Z,8.77
2018-12-01T17:36:29.361Z,8.27
2018-12-01T17:38:57.549Z,8.10
2018-12-01T17:41:26.378Z,7.67
2018-12-01T17:44:09.324Z,8.60
2018-12-01T17:46:36.841Z,8.00
2018-12-01T17:49:04.460Z,8.07
2018-12-01T17:51:31.939Z,7.40
2018-12-01T17:54:03.590Z,7.10
2018-12-01T17:56:31.155Z,7.37
2018-12-01T17:58:58.748Z,6.93
2018-12-01T18:01:26.287Z,6.57
2018-12-01T18:03:53.704Z,7.43
2018-12-01T18:06:21.118Z,7.47
2018-12-01T18:08:48.593Z,7.63
2018-12-01T18:11:16.263Z,8.20
2018-12-01T18:13:43.948Z,8.00
2018-12-01T18:16:11.433Z,8.63
2018-12-01T18:18:38.957Z,8.43
2018-12-01T18:21:06.411Z,8.67
2018-12-01T18:23:33.961Z,7.87
2018-12-01T18:26:01.612Z,7.90
2018-12-01T18:28:37.807Z,8.70
2018-12-01T18:31:06.855Z,8.90
2018-12-01T18:33:35.412Z,8.10
2018-12-01T18:36:03.180Z,7.73
2018-12-01T18:38:31.565Z,8.00
2018-12-01T18:40:59.247Z,8.07
2018-12-01T18:43:26.860Z,7.10
2018-12-01T18:45:55.422Z,7.10
2018-12-01T18:48:22.993Z,7.80
2018-12-01T18:50:50.638Z,8.37
2018-12-01T18:53:18.301Z,8.03
2018-12-01T18:55:47.664Z,8.83
2018-12-01T18:58:15.255Z,8.87
2018-12-01T19:00:43.378Z,8.70
2018-12-01T19:03:10.972Z,7.57
2018-12-01T19:05:38.500Z,7.90
2018-12-01T19:08:06.022Z,8.60
2018-12-01T19:10:33.659Z,8.77
2018-12-01T19:13:01.185Z,7.93
2018-12-01T19:15:28.702Z,8.53
2018-12-01T19:17:56.183Z,9.93
2018-12-01T19:20:23.750Z,10.60
2018-12-01T19:22:52.076Z,10.53
2018-12-01T19:25:20.236Z,10.93
2018-12-01T19:27:48.504Z,11.23
2018-12-01T19:30:16.668Z,10.83
2018-12-01T19:32:44.818Z,12.07
2018-12-01T19:35:13.806Z,12.00
2018-12-01T19:37:41.433Z,12.60
2018-12-01T19:40:11.012Z,11.83
2018-12-01T19:42:38.705Z,12.93
2018-12-01T19:45:06.327Z,11.30
2018-12-01T19:47:33.786Z,11.13
2018-12-01T19:50:01.277Z,10.90
2018-12-01T19:52:28.805Z,10.47
2018-12-01T19:54:56.793Z,9.70
2018-12-01T19:57:24.275Z,8.97
2018-12-01T19:59:51.714Z,9.60
2018-12-01T20:02:19.618Z,9.83
2018-12-01T20:04:47.181Z,8.63
2018-12-01T20:07:14.876Z,9.43
2018-12-01T20:09:42.362Z,8.50
2018-12-01T20:12:09.942Z,9.67
2018-12-01T20:14:37.468Z,8.57
2018-12-01T20:17:06.164Z,9.40
2018-12-01T20:19:33.667Z,9.77
2018-12-01T20:22:01.360Z,9.20
2018-12-01T20:24:28.948Z,9.87
2018-12-01T20:26:57.269Z,9.63
2018-12-01T20:29:25.661Z,10.47
2018-12-01T20:31:53.788Z,9.70
2018-12-01T20:34:23.310Z,11.03
2018-12-01T20:36:52.560Z,10.03
2018-12-01T20:39:28.754Z,10.27
2018-12-01T20:41:57.827Z,10.13
2018-12-01T20:44:25.454Z,10.27
2018-12-01T20:46:53.090Z,10.53
2018-12-01T20:49:20.591Z,10.17
2018-12-01T20:51:48.252Z,10.70
2018-12-01T20:54:23.842Z,10.97
2018-12-01T20:56:52.460Z,10.87
2018-12-01T20:59:19.968Z,12.70
2018-12-01T21:01:47.493Z,13.20
2018-12-01T21:04:14.978Z,12.90
2018-12-01T21:06:42.531Z,12.97
2018-12-01T21:09:10.347Z,14.47
2018-12-01T21:11:38.708Z,12.60
2018-12-01T21:14:06.335Z,12.80
2018-12-01T21:16:33.928Z,13.33
2018-12-01T21:19:01.496Z,13.97
2018-12-01T21:21:29.165Z,12.37
2018-12-01T21:23:58.289Z,13.67
2018-12-01T21:26:25.979Z,11.90
2018-12-01T21:28:54.085Z,11.97
2018-12-01T21:31:21.731Z,12.80
2018-12-01T21:33:49.429Z,11.67
2018-12-01T21:36:17.609Z,11.10
2018-12-01T21:38:45.445Z,11.53
2018-12-01T21:41:14.136Z,10.73
2018-12-01T21:43:41.887Z,9.90
2018-12-01T21:46:10.546Z,11.47
2018-12-01T21:48:37.896Z,12.03
2018-12-01T21:51:05.826Z,12.60
2018-12-01T21:53:33.482Z,13.40
2018-12-01T21:56:02.091Z,13.23
2018-12-01T21:58:29.708Z,12.87
2018-12-01T22:00:59.207Z,12.57
2018-12-01T22:03:27.099Z,12.90
2018-12-01T22:05:55.498Z,13.23
2018-12-01T22:08:23.937Z,12.07
2018-12-01T22:10:53.547Z,12.57
2018-12-01T22:13:22.275Z,12.37
2018-12-01T22:15:49.862Z,11.47
2018-12-01T22:18:17.608Z,12.13
2018-12-01T22:20:46.285Z,12.07
2018-12-01T22:23:15.580Z,11.33
2018-12-01T22:25:44.501Z,11.97
2018-12-01T22:28:13.134Z,11.37
2018-12-01T22:30:40.921Z,10.90
2018-12-01T22:33:09.707Z,11.23
2018-12-01T22:35:37.697Z,11.13
2018-12-01T22:38:05.267Z,11.10
2018-12-01T22:40:33.448Z,11.10
2018-12-01T22:43:01.988Z,10.30
2018-12-01T22:45:29.685Z,10.30
2018-12-01T22:47:57.682Z,9.87
2018-12-01T22:50:25.212Z,10.73
2018-12-01T22:52:53.059Z,10.67
2018-12-01T22:55:23.996Z,11.23
2018-12-01T22:57:55.317Z,10.57
2018-12-01T23:00:23.505Z,11.57
2018-12-01T23:02:51.122Z,9.93
2018-12-01T23:05:18.677Z,10.27
2018-12-01T23:07:46.308Z,10.60
2018-12-01T23:10:14.253Z,10.73
2018-12-01T23:12:42.409Z,10.60
2018-12-01T23:15:11.573Z,11.20
2018-12-01T23:17:39.192Z,11.30
2018-12-01T23:20:10.684Z,11.63
2018-12-01T23:22:38.204Z,10.73
2018-12-01T23:25:05.782Z,12.20
2018-12-01T23:27:33.425Z,12.50
2018-12-01T23:30:01.015Z,12.40
2018-12-01T23:32:28.550Z,11.73
2018-12-01T23:34:56.045Z,11.77
2018-12-01T23:37:23.614Z,11.13
2018-12-01T23:39:51.252Z,9.97
2018-12-01T23:42:18.867Z,10.30
2018-12-01T23:44:47.075Z,11.10
2018-12-01T23:47:14.684Z,9.87
2018-12-01T23:49:42.102Z,11.83
2018-12-01T23:52:09.568Z,11.07
2018-12-01T23:54:37.076Z,11.47
2018-12-01T23:57:04.765Z,11.90
2018-12-01T23:59:33.335Z,10.43
